Time;durP1;ratioP1;P1;durP2;ratioP2;P2;SDS_P1;SDS_P2;PMS_P1;PMS_P2;Temp;Humidity;BMP_temperature;BMP_pressure;BME280_temperature;BME280_humidity;BME280_pressure;Samples;Min_cycle;Max_cycle;Signal;HPM_P1;HPM_P2
2023/03/22 00:01:10;;;;;;;16.83;15.48;;;;;;;;;;4189606;28;20099;-55
2023/03/22 00:03:30;;;;;;;11.23;10.48;;;;;;;;;;4190674;28;20108;-56
2023/03/22 00:05:56;;;;;;;9.23;8.98;;;;;;;;;;4190682;28;20095;-55
2023/03/22 00:08:16;;;;;;;10.75;10.20;;;;;;;;;;4190478;28;20047;-56
2023/03/22 00:10:37;;;;;;;17.08;15.20;;;;;;;;;;4189448;28;20079;-55
2023/03/22 00:12:58;;;;;;;13.82;12.52;;;;;;;;;;4190490;28;20056;-56
2023/03/22 00:15:18;;;;;;;13.15;12.15;;;;;;;;;;4190473;28;20385;-56
2023/03/22 00:17:40;;;;;;;11.07;10.30;;;;;;;;;;4190260;28;20052;-55
2023/03/22 00:20:05;;;;;;;13.77;12.97;;;;;;;;;;4189548;28;20051;-55
2023/03/22 00:22:25;;;;;;;12.85;11.77;;;;;;;;;;4190430;28;20353;-55
2023/03/22 00:24:45;;;;;;;13.77;12.45;;;;;;;;;;4190353;28;20040;-55
2023/03/22 00:27:06;;;;;;;13.85;12.82;;;;;;;;;;4190318;28;20091;-55
2023/03/22 00:29:26;;;;;;;11.80;10.98;;;;;;;;;;4190389;28;20235;-55
2023/03/22 00:31:48;;;;;;;11.50;10.57;;;;;;;;;;4190249;28;20366;-55
2023/03/22 00:34:09;;;;;;;12.43;11.48;;;;;;;;;;4189645;28;20052;-55
2023/03/22 00:36:29;;;;;;;10.55;9.80;;;;;;;;;;4190198;28;20086;-55
2023/03/22 00:38:50;;;;;;;9.30;8.73;;;;;;;;;;4189359;28;20094;-55
2023/03/22 00:41:14;;;;;;;10.50;9.80;;;;;;;;;;4190134;28;20047;-56
2023/03/22 00:43:35;;;;;;;11.00;10.10;;;;;;;;;;4188106;28;20072;-55
2023/03/22 00:45:55;;;;;;;9.43;8.82;;;;;;;;;;4190098;28;20051;-56
2023/03/22 00:48:15;;;;;;;10.32;9.68;;;;;;;;;;4189317;28;20111;-55
2023/03/22 00:50:35;;;;;;;10.02;9.55;;;;;;;;;;4188266;28;20126;-56
2023/03/22 00:52:55;;;;;;;11.82;9.73;;;;;;;;;;4189990;28;20051;-56
2023/03/22 00:55:15;;;;;;;8.93;8.68;;;;;;;;;;4189946;28;20371;-55
2023/03/22 00:57:36;;;;;;;8.45;8.15;;;;;;;;;;4189911;28;20067;-56
2023/03/22 00:59:57;;;;;;;9.07;8.57;;;;;;;;;;4189974;28;20092;-55
2023/03/22 01:02:17;;;;;;;10.43;9.70;;;;;;;;;;4189835;28;20082;-55
2023/03/22 01:04:38;;;;;;;8.95;8.60;;;;;;;;;;4188847;28;20076;-56
2023/03/22 01:07:00;;;;;;;9.82;9.13;;;;;;;;;;4189776;28;20056;-55
2023/03/22 01:09:22;;;;;;;9.50;9.00;;;;;;;;;;4189737;28;20766;-55
2023/03/22 01:11:43;;;;;;;8.97;8.43;;;;;;;;;;4189730;28;20067;-56
2023/03/22 01:14:03;;;;;;;7.80;7.50;;;;;;;;;;4189609;28;20079;-56
2023/03/22 01:16:23;;;;;;;8.93;8.43;;;;;;;;;;4189728;28;20078;-55
2023/03/22 01:18:44;;;;;;;8.95;8.65;;;;;;;;;;4189581;28;20052;-56
2023/03/22 01:21:05;;;;;;;8.02;7.53;;;;;;;;;;4189060;28;20056;-55
2023/03/22 01:23:25;;;;;;;9.38;8.95;;;;;;;;;;4189285;28;20052;-56
2023/03/22 01:25:45;;;;;;;10.57;9.88;;;;;;;;;;4189547;28;20391;-55
2023/03/22 01:28:06;;;;;;;10.63;9.90;;;;;;;;;;4189519;28;20044;-56
2023/03/22 01:30:26;;;;;;;14.02;12.77;;;;;;;;;;4189575;28;20572;-55
2023/03/22 01:32:46;;;;;;;12.23;11.23;;;;;;;;;;4188743;28;20047;-57
2023/03/22 01:35:07;;;;;;;12.75;11.95;;;;;;;;;;4189474;28;20052;-56
2023/03/22 01:37:27;;;;;;;9.00;8.60;;;;;;;;;;4189479;28;20048;-55
2023/03/22 01:39:48;;;;;;;8.65;8.35;;;;;;;;;;4189510;28;20103;-55
2023/03/22 01:42:12;;;;;;;9.40;8.90;;;;;;;;;;4189371;28;20059;-55
2023/03/22 01:44:32;;;;;;;9.70;8.90;;;;;;;;;;4187949;28;20035;-56
2023/03/22 01:46:52;;;;;;;9.40;9.10;;;;;;;;;;4189008;28;20060;-55
2023/03/22 01:49:19;;;;;;;8.80;8.55;;;;;;;;;;4189283;28;20051;-55
2023/03/22 01:51:39;;;;;;;8.93;8.50;;;;;;;;;;4189204;28;20075;-55
2023/03/22 01:54:05;;;;;;;9.20;8.82;;;;;;;;;;4188049;28;20056;-55
2023/03/22 01:56:27;;;;;;;9.30;8.80;;;;;;;;;;4188601;28;20052;-55
2023/03/22 01:58:48;;;;;;;9.83;9.53;;;;;;;;;;4188975;28;20413;-56
2023/03/22 02:01:10;;;;;;;8.50;8.30;;;;;;;;;;4188778;28;20048;-55
2023/03/22 02:03:50;;;;;;;9.63;9.32;;;;;;;;;;4212981;22;20051;-57
2023/03/22 02:06:10;;;;;;;9.55;9.15;;;;;;;;;;4189882;28;20052;-57
2023/03/22 02:08:32;;;;;;;9.10;8.57;;;;;;;;;;4190089;28;20044;-56
2023/03/22 02:10:52;;;;;;;8.65;8.02;;;;;;;;;;4190636;28;20075;-56
2023/03/22 02:13:29;;;;;;;10.07;9.45;;;;;;;;;;4190511;28;20047;-57
2023/03/22 02:16:03;;;;;;;9.43;9.23;;;;;;;;;;4189585;28;20047;-56
2023/03/22 02:18:26;;;;;;;10.55;9.80;;;;;;;;;;4189694;28;20240;-56
2023/03/22 02:20:56;;;;;;;9.25;8.93;;;;;;;;;;4189698;28;20561;-57
2023/03/22 02:23:19;;;;;;;9.15;8.95;;;;;;;;;;4189020;28;20224;-57
2023/03/22 02:25:40;;;;;;;8.65;8.35;;;;;;;;;;4189983;28;20051;-56
2023/03/22 02:28:09;;;;;;;9.23;8.93;;;;;;;;;;4191324;28;20052;-56
2023/03/22 02:30:48;;;;;;;9.05;8.65;;;;;;;;;;4189260;28;20079;-56
2023/03/22 02:33:21;;;;;;;10.13;9.63;;;;;;;;;;4189928;28;20044;-57
2023/03/22 02:35:45;;;;;;;11.82;11.23;;;;;;;;;;4191200;28;20063;-56
2023/03/22 02:38:05;;;;;;;14.52;13.32;;;;;;;;;;4190578;28;20072;-57
2023/03/22 02:40:31;;;;;;;13.80;12.60;;;;;;;;;;4190100;28;20092;-57
2023/03/22 02:43:02;;;;;;;13.38;12.13;;;;;;;;;;4188917;28;20044;-56
2023/03/22 02:45:28;;;;;;;14.45;13.15;;;;;;;;;;4190332;28;20041;-57
2023/03/22 02:47:54;;;;;;;10.75;10.25;;;;;;;;;;4189554;28;20047;-57
2023/03/22 02:50:29;;;;;;;8.93;8.57;;;;;;;;;;4190584;28;20087;-56
2023/03/22 02:52:53;;;;;;;9.80;9.27;;;;;;;;;;4189694;28;20292;-57
2023/03/22 02:55:26;;;;;;;10.05;9.65;;;;;;;;;;4191088;28;20071;-56
2023/03/22 02:57:49;;;;;;;18.23;16.70;;;;;;;;;;4188951;28;20063;-56
2023/03/22 03:00:10;;;;;;;10.43;9.95;;;;;;;;;;4189052;28;20052;-56
2023/03/22 03:02:30;;;;;;;10.82;10.38;;;;;;;;;;4190690;28;20104;-56
2023/03/22 03:04:51;;;;;;;10.88;10.27;;;;;;;;;;4192609;28;20044;-56
2023/03/22 03:07:13;;;;;;;11.23;10.48;;;;;;;;;;4192443;28;20101;-56
2023/03/22 03:09:34;;;;;;;10.75;10.23;;;;;;;;;;4192424;28;20048;-56
2023/03/22 03:11:55;;;;;;;10.23;9.82;;;;;;;;;;4194562;28;20104;-57
2023/03/22 03:14:22;;;;;;;11.63;11.05;;;;;;;;;;4196863;28;20083;-58
2023/03/22 03:16:43;;;;;;;11.60;11.02;;;;;;;;;;4191651;28;20240;-58
2023/03/22 03:19:10;;;;;;;9.98;9.57;;;;;;;;;;4192788;28;20060;-58
2023/03/22 03:21:54;;;;;;;10.05;9.73;;;;;;;;;;4190536;28;20401;-58
2023/03/22 03:24:14;;;;;;;9.88;9.48;;;;;;;;;;4188989;28;20064;-58
2023/03/22 03:26:37;;;;;;;9.60;9.05;;;;;;;;;;4191829;28;20127;-58
2023/03/22 03:29:01;;;;;;;8.50;8.18;;;;;;;;;;4191245;28;20063;-58
2023/03/22 03:31:27;;;;;;;8.63;7.97;;;;;;;;;;4190900;28;20055;-58
2023/03/22 03:34:13;;;;;;;8.07;7.78;;;;;;;;;;4189660;28;20397;-58
2023/03/22 03:36:36;;;;;;;9.18;8.63;;;;;;;;;;4191342;28;20044;-58
2023/03/22 03:38:57;;;;;;;10.55;10.02;;;;;;;;;;4191365;28;20378;-58
2023/03/22 03:41:20;;;;;;;9.40;8.90;;;;;;;;;;4191861;28;20047;-58
2023/03/22 03:43:41;;;;;;;9.93;9.32;;;;;;;;;;4191369;28;20086;-58
2023/03/22 03:46:01;;;;;;;9.63;9.13;;;;;;;;;;4190681;28;20063;-58
2023/03/22 03:48:23;;;;;;;10.68;10.20;;;;;;;;;;4193039;28;20116;-58
2023/03/22 03:50:43;;;;;;;9.80;9.20;;;;;;;;;;4191353;28;20143;-58
2023/03/22 03:53:04;;;;;;;9.27;8.88;;;;;;;;;;4191338;28;20064;-58
2023/03/22 03:55:26;;;;;;;9.38;8.82;;;;;;;;;;4192462;28;20051;-58
2023/03/22 03:57:47;;;;;;;8.05;7.85;;;;;;;;;;4194094;28;20048;-58
2023/03/22 04:00:08;;;;;;;8.75;8.30;;;;;;;;;;4192020;28;20056;-58
2023/03/22 04:02:28;;;;;;;9.07;8.50;;;;;;;;;;4190156;28;20091;-58
2023/03/22 04:04:48;;;;;;;8.50;8.13;;;;;;;;;;4194187;28;20067;-58
2023/03/22 04:07:09;;;;;;;8.82;8.63;;;;;;;;;;4194903;28;20047;-58
2023/03/22 04:09:31;;;;;;;8.93;8.60;;;;;;;;;;4193454;28;20039;-58
2023/03/22 04:11:51;;;;;;;9.15;8.85;;;;;;;;;;4193411;28;20046;-58
2023/03/22 04:14:11;;;;;;;9.75;9.45;;;;;;;;;;4195065;28;20102;-58
2023/03/22 04:16:34;;;;;;;9.82;9.27;;;;;;;;;;4192757;28;20055;-58
2023/03/22 04:18:55;;;;;;;9.15;8.95;;;;;;;;;;4191380;28;20397;-58
2023/03/22 04:21:15;;;;;;;9.60;9.20;;;;;;;;;;4193377;28;20043;-58
2023/03/22 04:23:35;;;;;;;10.73;10.30;;;;;;;;;;4195096;28;20067;-58
2023/03/22 04:25:58;;;;;;;9.15;8.85;;;;;;;;;;4190627;28;20052;-58
2023/03/22 04:28:19;;;;;;;10.15;9.70;;;;;;;;;;4191350;28;20047;-58
2023/03/22 04:30:39;;;;;;;10.82;9.95;;;;;;;;;;4193128;28;20405;-58
2023/03/22 04:33:00;;;;;;;9.23;9.02;;;;;;;;;;4191161;28;20111;-58
2023/03/22 04:35:20;;;;;;;7.70;7.50;;;;;;;;;;4191491;28;20036;-58
2023/03/22 04:37:41;;;;;;;7.82;7.43;;;;;;;;;;4191417;28;20044;-58
2023/03/22 04:40:06;;;;;;;7.80;7.63;;;;;;;;;;4191782;28;20079;-58
2023/03/22 04:42:26;;;;;;;7.88;7.68;;;;;;;;;;4193049;28;20362;-58
2023/03/22 04:44:46;;;;;;;9.98;8.77;;;;;;;;;;4189866;28;20044;-58
2023/03/22 04:47:06;;;;;;;8.75;8.25;;;;;;;;;;4190331;28;20048;-58
2023/03/22 04:49:27;;;;;;;11.40;11.00;;;;;;;;;;4189439;28;20044;-58
2023/03/22 04:51:47;;;;;;;9.60;9.20;;;;;;;;;;4190302;28;20052;-58
2023/03/22 04:54:07;;;;;;;10.13;9.43;;;;;;;;;;4189865;28;20110;-58
2023/03/22 04:56:27;;;;;;;10.13;9.52;;;;;;;;;;4189828;28;20047;-58
2023/03/22 04:58:48;;;;;;;9.93;9.63;;;;;;;;;;4189825;28;20060;-58
2023/03/22 05:01:09;;;;;;;9.32;8.82;;;;;;;;;;4190779;28;20052;-58
2023/03/22 05:03:29;;;;;;;9.25;8.95;;;;;;;;;;4189174;28;20044;-58
2023/03/22 05:05:53;;;;;;;11.88;10.20;;;;;;;;;;4190397;28;20090;-58
2023/03/22 05:08:14;;;;;;;8.82;8.55;;;;;;;;;;4193074;28;20370;-58
2023/03/22 05:10:38;;;;;;;8.55;8.15;;;;;;;;;;4190419;28;20464;-58
2023/03/22 05:12:59;;;;;;;7.90;7.35;;;;;;;;;;4190835;28;20362;-58
2023/03/22 05:15:19;;;;;;;9.80;9.20;;;;;;;;;;4192703;28;20052;-58
2023/03/22 05:17:40;;;;;;;9.13;8.52;;;;;;;;;;4191951;28;20096;-58
2023/03/22 05:20:07;;;;;;;8.27;8.05;;;;;;;;;;4190122;28;20092;-58
2023/03/22 05:22:28;;;;;;;10.23;9.73;;;;;;;;;;4191485;28;20047;-58
2023/03/22 05:24:48;;;;;;;9.10;8.80;;;;;;;;;;4190767;28;20109;-58
2023/03/22 05:27:09;;;;;;;10.60;9.93;;;;;;;;;;4190761;28;20359;-58
2023/03/22 05:29:35;;;;;;;9.38;9.07;;;;;;;;;;4188880;28;20256;-58
2023/03/22 05:31:55;;;;;;;11.45;8.88;;;;;;;;;;4189886;28;20048;-58
2023/03/22 05:34:15;;;;;;;10.30;9.93;;;;;;;;;;4191353;28;20062;-58
2023/03/22 05:36:36;;;;;;;11.10;10.10;;;;;;;;;;4191590;28;20091;-58
2023/03/22 05:38:56;;;;;;;14.38;13.30;;;;;;;;;;4189517;28;20386;-58
2023/03/22 05:41:16;;;;;;;14.15;12.80;;;;;;;;;;4190546;28;20136;-58
2023/03/22 05:43:36;;;;;;;10.00;9.50;;;;;;;;;;4192695;28;20277;-58
2023/03/22 05:45:57;;;;;;;9.25;8.95;;;;;;;;;;4189126;28;20048;-58
2023/03/22 05:48:17;;;;;;;8.40;8.20;;;;;;;;;;4189264;28;20095;-58
2023/03/22 05:50:37;;;;;;;9.00;8.50;;;;;;;;;;4191782;28;20051;-58
2023/03/22 05:52:58;;;;;;;10.65;10.07;;;;;;;;;;4192710;28;20258;-58
2023/03/22 05:55:19;;;;;;;11.20;10.65;;;;;;;;;;4190354;28;20074;-58
2023/03/22 05:57:39;;;;;;;12.02;11.32;;;;;;;;;;4190217;28;20262;-58
2023/03/22 06:00:00;;;;;;;11.60;11.10;;;;;;;;;;4204881;28;20106;-58
2023/03/22 06:02:21;;;;;;;9.65;9.30;;;;;;;;;;4190112;28;20047;-58
2023/03/22 06:04:41;;;;;;;10.57;9.93;;;;;;;;;;4191476;28;20044;-58
2023/03/22 06:07:01;;;;;;;9.35;9.05;;;;;;;;;;4189463;28;20392;-58
2023/03/22 06:09:21;;;;;;;9.15;8.48;;;;;;;;;;4191454;28;20087;-58
2023/03/22 06:11:41;;;;;;;9.90;9.20;;;;;;;;;;4187587;28;20055;-58
2023/03/22 06:14:02;;;;;;;9.10;8.38;;;;;;;;;;4188688;28;20036;-58
2023/03/22 06:16:22;;;;;;;7.38;7.05;;;;;;;;;;4187740;28;20342;-58
2023/03/22 06:18:42;;;;;;;7.75;7.47;;;;;;;;;;4189245;28;20271;-58
2023/03/22 06:21:03;;;;;;;7.53;7.43;;;;;;;;;;4189833;28;20044;-58
2023/03/22 06:23:23;;;;;;;5.45;5.35;;;;;;;;;;4189868;28;20109;-59
2023/03/22 06:25:43;;;;;;;6.38;6.28;;;;;;;;;;4189684;28;20080;-59
2023/03/22 06:28:03;;;;;;;6.63;6.20;;;;;;;;;;4189344;28;20375;-59
2023/03/22 06:30:27;;;;;;;6.15;5.93;;;;;;;;;;4190395;28;20367;-59
2023/03/22 06:32:47;;;;;;;9.10;8.40;;;;;;;;;;4189110;28;20059;-60
2023/03/22 06:35:07;;;;;;;8.27;7.97;;;;;;;;;;4190519;28;20239;-59
2023/03/22 06:37:27;;;;;;;12.95;11.95;;;;;;;;;;4189904;28;20123;-60
2023/03/22 06:39:50;;;;;;;13.05;11.75;;;;;;;;;;4191857;28;20055;-59
2023/03/22 06:42:10;;;;;;;13.50;12.17;;;;;;;;;;4190957;28;20039;-59
2023/03/22 06:44:31;;;;;;;8.32;7.93;;;;;;;;;;4193612;28;20273;-59
2023/03/22 06:46:51;;;;;;;9.98;9.60;;;;;;;;;;4193139;28;20055;-59
2023/03/22 06:49:11;;;;;;;8.98;8.70;;;;;;;;;;4191808;28;20040;-59
2023/03/22 06:51:32;;;;;;;8.55;8.13;;;;;;;;;;4192900;28;20071;-59
2023/03/22 06:53:52;;;;;;;8.45;8.20;;;;;;;;;;4193558;28;20048;-59
2023/03/22 06:56:12;;;;;;;11.95;11.18;;;;;;;;;;4192426;28;20320;-60
2023/03/22 06:58:33;;;;;;;11.90;10.98;;;;;;;;;;4193442;28;20124;-59
2023/03/22 07:00:55;;;;;;;16.38;15.07;;;;;;;;;;4190579;28;20067;-59
2023/03/22 07:03:15;;;;;;;11.48;10.80;;;;;;;;;;4191955;28;20112;-60
2023/03/22 07:05:36;;;;;;;12.88;11.82;;;;;;;;;;4193069;28;20083;-59
2023/03/22 07:07:56;;;;;;;12.63;11.50;;;;;;;;;;4194288;28;20054;-59
2023/03/22 07:10:16;;;;;;;9.63;9.27;;;;;;;;;;4192330;28;20052;-60
2023/03/22 07:12:36;;;;;;;10.23;9.23;;;;;;;;;;4192322;28;20052;-59
2023/03/22 07:14:57;;;;;;;8.80;8.30;;;;;;;;;;4194783;28;20071;-59
2023/03/22 07:17:17;;;;;;;9.77;9.15;;;;;;;;;;4196496;28;20047;-60
2023/03/22 07:19:37;;;;;;;11.73;9.52;;;;;;;;;;4191531;28;20078;-59
2023/03/22 07:21:57;;;;;;;13.43;12.13;;;;;;;;;;4192592;28;20152;-60
2023/03/22 07:24:18;;;;;;;10.43;9.95;;;;;;;;;;4194733;28;20048;-60
2023/03/22 07:26:39;;;;;;;9.13;8.68;;;;;;;;;;4193731;28;20185;-60
2023/03/22 07:28:59;;;;;;;8.95;8.23;;;;;;;;;;4192116;28;20040;-60
2023/03/22 07:31:20;;;;;;;8.70;8.10;;;;;;;;;;4192979;28;20044;-60
2023/03/22 07:33:40;;;;;;;8.13;7.75;;;;;;;;;;4192895;28;20044;-60
2023/03/22 07:36:00;;;;;;;7.88;7.57;;;;;;;;;;4191727;28;20139;-60
2023/03/22 07:38:21;;;;;;;7.05;6.75;;;;;;;;;;4190955;28;20102;-60
2023/03/22 07:40:41;;;;;;;5.85;5.53;;;;;;;;;;4190871;28;20060;-59
2023/03/22 07:43:02;;;;;;;4.13;4.03;;;;;;;;;;4191680;28;20136;-59
2023/03/22 07:45:22;;;;;;;4.30;4.20;;;;;;;;;;4191798;28;20112;-60
2023/03/22 07:47:43;;;;;;;7.10;6.45;;;;;;;;;;4191221;28;20055;-60
2023/03/22 07:50:03;;;;;;;7.28;6.93;;;;;;;;;;4191011;28;20044;-60
2023/03/22 07:52:24;;;;;;;5.15;5.05;;;;;;;;;;4192114;28;20406;-59
2023/03/22 07:54:44;;;;;;;4.95;4.78;;;;;;;;;;4192362;28;20290;-60
2023/03/22 07:57:05;;;;;;;4.32;4.22;;;;;;;;;;4191725;28;20086;-60
2023/03/22 07:59:25;;;;;;;3.30;3.20;;;;;;;;;;4192823;28;20075;-60
2023/03/22 08:01:46;;;;;;;4.50;4.30;;;;;;;;;;4193206;28;20135;-59
2023/03/22 08:04:06;;;;;;;3.50;3.30;;;;;;;;;;4190767;28;20048;-60
2023/03/22 08:06:26;;;;;;;2.92;2.83;;;;;;;;;;4191584;28;20067;-60
2023/03/22 08:08:47;;;;;;;3.42;3.30;;;;;;;;;;4193535;28;20090;-59
2023/03/22 08:11:07;;;;;;;2.80;2.70;;;;;;;;;;4193536;28;20386;-59
2023/03/22 08:13:28;;;;;;;2.78;2.78;;;;;;;;;;4189922;28;20044;-59
2023/03/22 08:15:48;;;;;;;2.83;2.72;;;;;;;;;;4193488;28;20062;-60
2023/03/22 08:18:09;;;;;;;3.60;3.47;;;;;;;;;;4194240;28;20075;-60
2023/03/22 08:20:30;;;;;;;3.97;3.10;;;;;;;;;;4190724;28;20044;-59
2023/03/22 08:22:51;;;;;;;3.47;3.38;;;;;;;;;;4190436;28;20091;-60
2023/03/22 08:25:11;;;;;;;4.13;3.75;;;;;;;;;;4193996;28;20415;-59
2023/03/22 08:27:31;;;;;;;3.90;3.38;;;;;;;;;;4192103;28;20331;-59
2023/03/22 08:29:55;;;;;;;2.80;2.67;;;;;;;;;;4192138;28;20105;-60
2023/03/22 08:32:18;;;;;;;5.97;3.03;;;;;;;;;;4191274;28;20056;-59
2023/03/22 08:34:42;;;;;;;4.05;3.70;;;;;;;;;;4192406;28;20099;-60
2023/03/22 08:37:03;;;;;;;3.53;3.42;;;;;;;;;;4191796;28;20110;-60
2023/03/22 08:39:23;;;;;;;2.53;2.42;;;;;;;;;;4188716;28;20043;-60
2023/03/22 08:41:44;;;;;;;2.90;2.80;;;;;;;;;;4191954;28;20047;-59
2023/03/22 08:44:04;;;;;;;2.50;2.50;;;;;;;;;;4191443;28;20040;-59
2023/03/22 08:46:24;;;;;;;2.08;2.05;;;;;;;;;;4194781;28;20112;-59
2023/03/22 08:48:49;;;;;;;3.03;2.45;;;;;;;;;;4190570;28;20040;-60
2023/03/22 08:51:09;;;;;;;2.65;2.35;;;;;;;;;;4191121;28;20044;-60
2023/03/22 08:53:29;;;;;;;2.03;2.03;;;;;;;;;;4192637;28;20044;-60
2023/03/22 08:55:49;;;;;;;2.05;2.05;;;;;;;;;;4194110;28;20047;-60
2023/03/22 08:58:13;;;;;;;2.50;2.40;;;;;;;;;;4190161;28;20051;-60
2023/03/22 09:00:34;;;;;;;2.75;2.65;;;;;;;;;;4192499;28;20082;-60
2023/03/22 09:03:07;;;;;;;2.38;2.28;;;;;;;;;;4191743;28;20047;-60
2023/03/22 09:05:27;;;;;;;1.65;1.65;;;;;;;;;;4189282;28;20094;-60
2023/03/22 09:07:51;;;;;;;2.28;1.88;;;;;;;;;;4195141;28;20051;-60
2023/03/22 09:10:11;;;;;;;1.20;1.20;;;;;;;;;;4189231;28;20036;-60
2023/03/22 09:12:31;;;;;;;1.35;1.35;;;;;;;;;;4190466;28;20086;-60
2023/03/22 09:14:51;;;;;;;4.63;2.00;;;;;;;;;;4190141;28;20362;-60
2023/03/22 09:17:11;;;;;;;2.35;2.17;;;;;;;;;;4189429;28;20386;-60
2023/03/22 09:19:31;;;;;;;2.83;1.40;;;;;;;;;;4191316;28;20063;-60
2023/03/22 09:21:52;;;;;;;1.83;1.80;;;;;;;;;;4190871;28;20048;-60
2023/03/22 09:24:11;;;;;;;1.52;1.42;;;;;;;;;;4202267;28;20042;-60
2023/03/22 09:26:32;;;;;;;2.10;2.00;;;;;;;;;;4191707;28;20055;-60
2023/03/22 09:28:52;;;;;;;1.95;1.67;;;;;;;;;;4191327;28;20071;-60
2023/03/22 09:31:12;;;;;;;2.50;1.60;;;;;;;;;;4191191;28;20055;-60
2023/03/22 09:33:33;;;;;;;1.95;1.95;;;;;;;;;;4190807;28;20328;-60
2023/03/22 09:35:54;;;;;;;1.77;1.77;;;;;;;;;;4190742;28;20462;-60
2023/03/22 09:38:14;;;;;;;2.15;2.00;;;;;;;;;;4191420;28;20059;-60
2023/03/22 09:40:36;;;;;;;2.22;2.13;;;;;;;;;;4189827;28;20071;-60
2023/03/22 09:42:58;;;;;;;2.00;1.92;;;;;;;;;;4189625;28;20093;-60
2023/03/22 09:45:23;;;;;;;1.73;1.73;;;;;;;;;;4191299;28;20047;-60
2023/03/22 09:47:46;;;;;;;4.05;2.05;;;;;;;;;;4193217;28;20046;-60
2023/03/22 09:50:11;;;;;;;3.00;1.50;;;;;;;;;;4189702;28;20097;-60
2023/03/22 09:52:32;;;;;;;3.35;1.85;;;;;;;;;;4190469;28;20044;-60
2023/03/22 09:54:52;;;;;;;1.92;1.83;;;;;;;;;;4192778;28;20055;-60
2023/03/22 09:57:25;;;;;;;1.42;1.42;;;;;;;;;;4192122;28;20109;-60
2023/03/22 09:59:48;;;;;;;1.52;1.40;;;;;;;;;;4188688;28;20113;-60
2023/03/22 10:02:27;;;;;;;1.65;1.55;;;;;;;;;;4190796;28;20091;-60
2023/03/22 10:04:50;;;;;;;1.25;1.25;;;;;;;;;;4191992;28;20063;-60
2023/03/22 10:07:18;;;;;;;1.20;1.20;;;;;;;;;;4188187;28;20278;-60
2023/03/22 10:09:44;;;;;;;1.10;1.10;;;;;;;;;;4189779;28;20056;-60
2023/03/22 10:12:08;;;;;;;1.42;1.42;;;;;;;;;;4191305;28;20095;-60
2023/03/22 10:14:31;;;;;;;1.27;1.20;;;;;;;;;;4189280;28;20056;-60
2023/03/22 10:16:54;;;;;;;1.48;1.48;;;;;;;;;;4193718;28;20063;-60
2023/03/22 10:19:20;;;;;;;1.50;1.40;;;;;;;;;;4192345;28;20044;-60
2023/03/22 10:21:40;;;;;;;1.15;1.15;;;;;;;;;;4193400;28;20074;-60
2023/03/22 10:24:10;;;;;;;1.10;1.10;;;;;;;;;;4192457;28;20059;-60
2023/03/22 10:26:36;;;;;;;1.73;1.20;;;;;;;;;;4194560;28;20362;-60
2023/03/22 10:29:02;;;;;;;1.67;1.33;;;;;;;;;;4190880;28;20040;-60
2023/03/22 10:31:25;;;;;;;1.70;1.23;;;;;;;;;;4191430;28;20366;-60
2023/03/22 10:33:49;;;;;;;1.10;1.00;;;;;;;;;;4192553;28;20048;-60
2023/03/22 10:36:13;;;;;;;1.40;1.40;;;;;;;;;;4192584;28;20040;-60
2023/03/22 10:38:36;;;;;;;1.40;1.40;;;;;;;;;;4192733;28;20144;-60
2023/03/22 10:40:58;;;;;;;1.20;1.20;;;;;;;;;;4191189;28;20044;-60
2023/03/22 10:43:23;;;;;;;2.78;2.05;;;;;;;;;;4191202;28;20059;-60
2023/03/22 10:45:43;;;;;;;3.05;1.85;;;;;;;;;;4192660;28;20052;-59
2023/03/22 10:48:05;;;;;;;1.23;1.23;;;;;;;;;;4193398;28;20367;-60
2023/03/22 10:50:28;;;;;;;2.30;1.80;;;;;;;;;;4192174;28;20051;-60
2023/03/22 10:52:58;;;;;;;1.40;1.27;;;;;;;;;;4191973;28;20078;-60
2023/03/22 10:55:18;;;;;;;1.10;1.10;;;;;;;;;;4191410;28;20236;-60
2023/03/22 10:57:42;;;;;;;1.10;1.10;;;;;;;;;;4194227;28;20047;-60
2023/03/22 11:00:07;;;;;;;1.40;1.30;;;;;;;;;;4192088;28;20055;-60
2023/03/22 11:02:28;;;;;;;1.35;1.10;;;;;;;;;;4193427;28;20044;-60
2023/03/22 11:04:50;;;;;;;1.20;1.20;;;;;;;;;;4193332;28;20036;-60
2023/03/22 11:07:14;;;;;;;1.30;1.30;;;;;;;;;;4192442;28;20114;-60
2023/03/22 11:09:34;;;;;;;1.25;1.25;;;;;;;;;;4192891;28;20040;-60
2023/03/22 11:11:56;;;;;;;1.30;1.20;;;;;;;;;;4194469;28;20048;-60
2023/03/22 11:14:20;;;;;;;1.40;1.30;;;;;;;;;;4190993;28;20375;-60
2023/03/22 11:16:45;;;;;;;1.20;1.20;;;;;;;;;;4191840;28;20409;-60
2023/03/22 11:19:06;;;;;;;1.30;1.20;;;;;;;;;;4194131;28;20048;-60
2023/03/22 11:21:31;;;;;;;1.30;1.20;;;;;;;;;;4193874;28;20243;-60
2023/03/22 11:23:55;;;;;;;1.42;1.42;;;;;;;;;;4191442;28;20052;-59
2023/03/22 11:26:24;;;;;;;1.00;1.00;;;;;;;;;;4191649;28;20052;-60
2023/03/22 11:28:47;;;;;;;1.10;1.10;;;;;;;;;;4199711;28;20346;-60
2023/03/22 11:31:09;;;;;;;1.10;1.10;;;;;;;;;;4189715;28;20051;-60
2023/03/22 11:33:29;;;;;;;1.15;1.08;;;;;;;;;;4193195;28;20044;-60
2023/03/22 11:35:57;;;;;;;1.30;1.30;;;;;;;;;;4193683;28;20118;-60
2023/03/22 11:38:35;;;;;;;1.60;1.60;;;;;;;;;;4192028;28;20273;-60
2023/03/22 11:40:57;;;;;;;1.23;1.23;;;;;;;;;;4190471;28;20047;-60
2023/03/22 11:43:20;;;;;;;2.58;1.75;;;;;;;;;;4192845;28;20095;-60
2023/03/22 11:45:41;;;;;;;1.02;1.02;;;;;;;;;;4191450;28;20328;-60
2023/03/22 11:48:06;;;;;;;1.10;1.10;;;;;;;;;;4193914;28;20048;-60
2023/03/22 11:50:35;;;;;;;0.98;0.93;;;;;;;;;;4191003;28;20067;-60
2023/03/22 11:52:56;;;;;;;1.08;1.08;;;;;;;;;;4190596;28;20048;-60
2023/03/22 11:55:16;;;;;;;1.30;1.20;;;;;;;;;;4189630;28;20052;-60
2023/03/22 11:57:36;;;;;;;1.35;1.00;;;;;;;;;;4190791;28;20047;-60
2023/03/22 12:00:12;;;;;;;1.10;1.10;;;;;;;;;;4190232;28;20090;-60
2023/03/22 12:02:48;;;;;;;0.93;0.93;;;;;;;;;;4191187;28;20044;-60
2023/03/22 12:05:20;;;;;;;1.00;1.00;;;;;;;;;;4191572;28;20060;-60
2023/03/22 12:07:41;;;;;;;0.90;0.90;;;;;;;;;;4191426;28;20064;-60
2023/03/22 12:10:14;;;;;;;1.70;0.90;;;;;;;;;;4191913;28;20112;-60
2023/03/22 12:12:39;;;;;;;1.00;1.00;;;;;;;;;;4192220;28;20094;-60
2023/03/22 12:15:12;;;;;;;0.90;0.90;;;;;;;;;;4192104;28;20105;-60
2023/03/22 12:18:02;;;;;;;0.95;0.95;;;;;;;;;;4191534;28;20123;-60
2023/03/22 12:20:45;;;;;;;1.77;1.05;;;;;;;;;;4144493;28;20194;-60
2023/03/22 12:23:13;;;;;;;1.20;1.10;;;;;;;;;;4192582;28;20116;-60
2023/03/22 12:25:34;;;;;;;1.38;1.27;;;;;;;;;;4190616;28;20375;-60
2023/03/22 12:28:01;;;;;;;1.10;1.10;;;;;;;;;;4192338;28;20051;-60
2023/03/22 12:30:23;;;;;;;1.05;1.05;;;;;;;;;;4192219;28;20286;-60
2023/03/22 12:32:44;;;;;;;;;;;;;;;;;;4191926;28;20048;-60
2023/03/22 12:35:06;;;;;;;1.80;1.05;;;;;;;;;;4191093;28;19923;-60
2023/03/22 12:37:39;;;;;;;1.10;1.00;;;;;;;;;;4192690;28;20086;-60
2023/03/22 12:40:04;;;;;;;1.00;1.00;;;;;;;;;;4192483;28;20071;-59
2023/03/22 12:42:24;;;;;;;1.10;1.08;;;;;;;;;;4191640;28;20366;-59
2023/03/22 12:44:45;;;;;;;1.25;1.00;;;;;;;;;;4190356;28;20135;-59
2023/03/22 12:47:34;;;;;;;1.10;1.10;;;;;;;;;;4190443;28;20236;-59
2023/03/22 12:50:07;;;;;;;1.00;1.00;;;;;;;;;;4194902;28;20121;-59
2023/03/22 12:52:36;;;;;;;1.23;1.13;;;;;;;;;;4190381;28;20366;-59
2023/03/22 12:55:06;;;;;;;1.20;1.20;;;;;;;;;;4191975;28;20087;-59
2023/03/22 12:57:26;;;;;;;1.00;1.00;;;;;;;;;;4193405;28;20095;-59
2023/03/22 12:59:49;;;;;;;0.90;0.90;;;;;;;;;;4190881;28;20071;-59
2023/03/22 13:02:09;;;;;;;1.05;1.05;;;;;;;;;;4189574;28;20124;-60
2023/03/22 13:04:35;;;;;;;1.08;1.08;;;;;;;;;;4193020;28;20086;-59
2023/03/22 13:06:57;;;;;;;1.10;1.10;;;;;;;;;;4194763;28;20421;-59
2023/03/22 13:09:19;;;;;;;1.00;1.00;;;;;;;;;;4192236;28;20091;-59
2023/03/22 13:11:39;;;;;;;1.02;1.00;;;;;;;;;;4190521;28;20078;-59
2023/03/22 13:14:00;;;;;;;0.90;0.90;;;;;;;;;;4193260;28;20048;-60
2023/03/22 13:16:23;;;;;;;0.98;0.98;;;;;;;;;;4192429;28;20293;-59
2023/03/22 13:18:44;;;;;;;;;;;;;;;;;;4202283;28;20070;-59
2023/03/22 13:21:12;;;;;;;2.28;0.98;;;;;;;;;;4188241;28;19980;-59
2023/03/22 13:23:32;;;;;;;1.27;0.95;;;;;;;;;;4189608;28;20036;-58
2023/03/22 13:26:00;;;;;;;2.15;0.95;;;;;;;;;;4190350;28;20055;-58
2023/03/22 13:28:20;;;;;;;0.93;0.90;;;;;;;;;;4190061;28;20043;-59
2023/03/22 13:30:47;;;;;;;1.00;1.00;;;;;;;;;;4190548;28;20071;-58
2023/03/22 13:33:10;;;;;;;0.90;0.90;;;;;;;;;;4189878;28;20159;-59
2023/03/22 13:35:55;;;;;;;1.25;0.98;;;;;;;;;;4189834;28;20059;-57
2023/03/22 13:38:20;;;;;;;1.30;0.90;;;;;;;;;;4190680;28;20051;-57
2023/03/22 13:40:49;;;;;;;0.90;0.90;;;;;;;;;;4190715;28;20048;-58
2023/03/22 13:43:22;;;;;;;2.05;1.00;;;;;;;;;;4190007;28;20109;-57
2023/03/22 13:46:02;;;;;;;0.90;0.90;;;;;;;;;;4189906;28;20442;-57
2023/03/22 13:48:42;;;;;;;0.98;0.98;;;;;;;;;;4190435;28;20103;-57
2023/03/22 13:51:17;;;;;;;1.38;1.00;;;;;;;;;;4192164;28;20043;-58
2023/03/22 13:53:38;;;;;;;1.00;0.90;;;;;;;;;;4190542;28;20075;-57
2023/03/22 13:56:00;;;;;;;1.02;0.90;;;;;;;;;;4190343;28;20150;-58
2023/03/22 13:58:34;;;;;;;1.65;0.90;;;;;;;;;;4191511;28;20105;-58
2023/03/22 14:00:55;;;;;;;0.90;0.90;;;;;;;;;;4190994;28;20055;-58
2023/03/22 14:03:20;;;;;;;1.38;1.02;;;;;;;;;;4188803;28;20067;-58
2023/03/22 14:05:41;;;;;;;1.02;1.02;;;;;;;;;;4189587;28;20063;-57
2023/03/22 14:08:03;;;;;;;1.05;0.98;;;;;;;;;;4191770;28;20091;-57
2023/03/22 14:10:30;;;;;;;2.58;1.00;;;;;;;;;;4188581;28;20036;-58
2023/03/22 14:12:53;;;;;;;1.00;1.00;;;;;;;;;;4189883;28;20048;-58